sensor_id;sensor_type;location;lat;lon;timestamp;temperature;humidity
33460;DHT22;19795;53.160;6.612;2023-09-12T05:19:47;16.40;99.90
33460;DHT22;19795;53.160;6.612;2023-09-12T05:25:09;16.80;99.90
33460;DHT22;19795;53.160;6.612;2023-09-12T05:27:35;17.00;99.90
33460;DHT22;19795;53.160;6.612;2023-09-12T05:30:00;17.20;99.90
33460;DHT22;19795;53.160;6.612;2023-09-12T05:32:26;17.20;99.90
33460;DHT22;19795;53.160;6.612;2023-09-12T05:34:52;17.30;99.90
33460;DHT22;19795;53.160;6.612;2023-09-12T05:37:17;17.30;99.90
33460;DHT22;19795;53.160;6.612;2023-09-12T05:39:44;17.30;99.90
33460;DHT22;19795;53.160;6.612;2023-09-12T05:42:10;17.30;99.90
33460;DHT22;19795;53.160;6.612;2023-09-12T05:44:35;17.30;99.90
33460;DHT22;19795;53.160;6.612;2023-09-12T05:47:01;17.40;99.90
33460;DHT22;19795;53.160;6.612;2023-09-12T05:49:27;17.30;99.90
33460;DHT22;19795;53.160;6.612;2023-09-12T05:51:52;17.30;99.90
33460;DHT22;19795;53.160;6.612;2023-09-12T05:54:18;17.30;99.90
33460;DHT22;19795;53.160;6.612;2023-09-12T05:56:45;17.30;99.90
33460;DHT22;19795;53.160;6.612;2023-09-12T05:59:10;17.40;99.90
33460;DHT22;19795;53.160;6.612;2023-09-12T06:01:36;17.40;99.90
33460;DHT22;19795;53.160;6.612;2023-09-12T06:04:02;17.50;99.90
33460;DHT22;19795;53.160;6.612;2023-09-12T06:06:28;17.60;99.90
33460;DHT22;19795;53.160;6.612;2023-09-12T06:08:53;17.60;99.90
33460;DHT22;19795;53.160;6.612;2023-09-12T06:11:19;17.70;99.90
33460;DHT22;19795;53.160;6.612;2023-09-12T06:13:45;17.80;99.90
33460;DHT22;19795;53.160;6.612;2023-09-12T06:16:11;17.80;99.90
33460;DHT22;19795;53.160;6.612;2023-09-12T06:18:36;17.80;99.90
33460;DHT22;19795;53.160;6.612;2023-09-12T06:21:02;17.80;99.90
33460;DHT22;19795;53.160;6.612;2023-09-12T06:23:34;17.80;99.90
33460;DHT22;19795;53.160;6.612;2023-09-12T06:25:59;17.90;99.90
33460;DHT22;19795;53.160;6.612;2023-09-12T06:28:26;18.00;99.90
33460;DHT22;19795;53.160;6.612;2023-09-12T06:30:53;18.00;99.90
33460;DHT22;19795;53.160;6.612;2023-09-12T06:33:18;18.10;99.90
33460;DHT22;19795;53.160;6.612;2023-09-12T06:35:48;18.10;99.90
33460;DHT22;19795;53.160;6.612;2023-09-12T06:38:14;18.00;99.90
33460;DHT22;19795;53.160;6.612;2023-09-12T06:40:40;18.00;99.90
33460;DHT22;19795;53.160;6.612;2023-09-12T06:43:05;18.00;99.90
33460;DHT22;19795;53.160;6.612;2023-09-12T06:45:31;18.10;99.90
33460;DHT22;19795;53.160;6.612;2023-09-12T06:47:58;18.10;99.90
33460;DHT22;19795;53.160;6.612;2023-09-12T06:50:23;18.20;99.90
33460;DHT22;19795;53.160;6.612;2023-09-12T06:52:49;18.10;99.90
33460;DHT22;19795;53.160;6.612;2023-09-12T06:55:15;18.20;99.90
33460;DHT22;19795;53.160;6.612;2023-09-12T06:57:40;18.20;99.90
33460;DHT22;19795;53.160;6.612;2023-09-12T07:00:07;18.30;99.90
33460;DHT22;19795;53.160;6.612;2023-09-12T07:02:34;18.40;99.90
33460;DHT22;19795;53.160;6.612;2023-09-12T07:04:59;18.60;99.90
33460;DHT22;19795;53.160;6.612;2023-09-12T07:07:25;18.70;99.90
33460;DHT22;19795;53.160;6.612;2023-09-12T07:09:51;18.80;99.90
33460;DHT22;19795;53.160;6.612;2023-09-12T07:12:19;18.90;99.90
33460;DHT22;19795;53.160;6.612;2023-09-12T07:14:45;18.90;99.90
33460;DHT22;19795;53.160;6.612;2023-09-12T07:17:11;19.00;99.90
33460;DHT22;19795;53.160;6.612;2023-09-12T07:19:36;19.00;99.90
33460;DHT22;19795;53.160;6.612;2023-09-12T07:22:02;19.00;99.90
33460;DHT22;19795;53.160;6.612;2023-09-12T07:24:28;19.20;99.90
33460;DHT22;19795;53.160;6.612;2023-09-12T07:26:54;19.20;99.90
33460;DHT22;19795;53.160;6.612;2023-09-12T07:29:20;19.40;99.90
33460;DHT22;19795;53.160;6.612;2023-09-12T07:31:45;19.40;99.90
33460;DHT22;19795;53.160;6.612;2023-09-12T07:34:14;19.50;99.90
33460;DHT22;19795;53.160;6.612;2023-09-12T07:36:40;19.70;99.90
33460;DHT22;19795;53.160;6.612;2023-09-12T07:39:06;19.90;99.90
33460;DHT22;19795;53.160;6.612;2023-09-12T07:41:32;20.10;99.90
33460;DHT22;19795;53.160;6.612;2023-09-12T07:43:57;20.50;99.90
33460;DHT22;19795;53.160;6.612;2023-09-12T07:46:23;20.40;99.90
33460;DHT22;19795;53.160;6.612;2023-09-12T07:48:49;20.50;99.90
33460;DHT22;19795;53.160;6.612;2023-09-12T07:51:16;20.60;99.90
33460;DHT22;19795;53.160;6.612;2023-09-12T07:53:43;20.70;99.90
33460;DHT22;19795;53.160;6.612;2023-09-12T07:56:09;20.80;99.90
33460;DHT22;19795;53.160;6.612;2023-09-12T07:58:40;20.80;99.90
33460;DHT22;19795;53.160;6.612;2023-09-12T08:01:09;20.70;99.90
33460;DHT22;19795;53.160;6.612;2023-09-12T08:03:39;20.60;99.90
33460;DHT22;19795;53.160;6.612;2023-09-12T08:06:08;20.40;99.90
33460;DHT22;19795;53.160;6.612;2023-09-12T08:08:37;20.30;99.90
33460;DHT22;19795;53.160;6.612;2023-09-12T08:11:03;20.20;99.90
33460;DHT22;19795;53.160;6.612;2023-09-12T08:13:29;20.10;99.90
33460;DHT22;19795;53.160;6.612;2023-09-12T08:15:56;19.90;99.90
33460;DHT22;19795;53.160;6.612;2023-09-12T08:18:29;19.90;99.90
33460;DHT22;19795;53.160;6.612;2023-09-12T08:20:55;19.80;99.90
33460;DHT22;19795;53.160;6.612;2023-09-12T08:23:21;19.80;99.90
33460;DHT22;19795;53.160;6.612;2023-09-12T08:25:46;19.70;99.90
33460;DHT22;19795;53.160;6.612;2023-09-12T08:28:18;19.80;99.90
33460;DHT22;19795;53.160;6.612;2023-09-12T08:30:47;19.80;99.90
33460;DHT22;19795;53.160;6.612;2023-09-12T08:33:13;19.90;99.90
33460;DHT22;19795;53.160;6.612;2023-09-12T08:35:42;20.00;99.90
33460;DHT22;19795;53.160;6.612;2023-09-12T08:38:08;20.10;99.90
33460;DHT22;19795;53.160;6.612;2023-09-12T08:40:34;20.20;99.90
33460;DHT22;19795;53.160;6.612;2023-09-12T08:43:01;20.40;99.90
33460;DHT22;19795;53.160;6.612;2023-09-12T08:45:26;20.40;99.90
33460;DHT22;19795;53.160;6.612;2023-09-12T08:47:53;20.60;99.90
33460;DHT22;19795;53.160;6.612;2023-09-12T08:50:20;20.70;99.90
33460;DHT22;19795;53.160;6.612;2023-09-12T08:52:49;20.80;99.90
33460;DHT22;19795;53.160;6.612;2023-09-12T08:55:14;21.10;99.90
33460;DHT22;19795;53.160;6.612;2023-09-12T08:57:44;21.30;99.90
33460;DHT22;19795;53.160;6.612;2023-09-12T09:00:12;21.30;99.90
33460;DHT22;19795;53.160;6.612;2023-09-12T09:02:39;21.30;99.90
33460;DHT22;19795;53.160;6.612;2023-09-12T09:05:09;21.30;99.90
33460;DHT22;19795;53.160;6.612;2023-09-12T09:07:37;21.40;99.90
33460;DHT22;19795;53.160;6.612;2023-09-12T09:10:04;21.30;99.90
33460;DHT22;19795;53.160;6.612;2023-09-12T09:12:32;21.20;99.90
33460;DHT22;19795;53.160;6.612;2023-09-12T09:14:58;21.20;99.90
33460;DHT22;19795;53.160;6.612;2023-09-12T09:17:24;21.40;99.90
33460;DHT22;19795;53.160;6.612;2023-09-12T09:19:52;21.90;99.90
33460;DHT22;19795;53.160;6.612;2023-09-12T09:22:19;22.60;99.90
33460;DHT22;19795;53.160;6.612;2023-09-12T09:24:45;23.00;76.30
33460;DHT22;19795;53.160;6.612;2023-09-12T09:27:10;23.40;57.40
33460;DHT22;19795;53.160;6.612;2023-09-12T09:29:47;23.50;46.20
33460;DHT22;19795;53.160;6.612;2023-09-12T09:32:18;23.30;59.50
33460;DHT22;19795;53.160;6.612;2023-09-12T09:34:46;23.00;61.40
33460;DHT22;19795;53.160;6.612;2023-09-12T09:37:12;22.80;63.00
33460;DHT22;19795;53.160;6.612;2023-09-12T09:39:37;22.60;95.00
33460;DHT22;19795;53.160;6.612;2023-09-12T09:42:03;22.50;99.90
33460;DHT22;19795;53.160;6.612;2023-09-12T09:44:35;22.70;94.80
33460;DHT22;19795;53.160;6.612;2023-09-12T09:47:01;23.00;97.50
33460;DHT22;19795;53.160;6.612;2023-09-12T09:49:32;23.30;71.60
33460;DHT22;19795;53.160;6.612;2023-09-12T09:52:04;23.30;36.50
33460;DHT22;19795;53.160;6.612;2023-09-12T09:54:30;23.00;45.60
33460;DHT22;19795;53.160;6.612;2023-09-12T09:56:56;22.70;80.60
33460;DHT22;19795;53.160;6.612;2023-09-12T09:59:26;22.60;74.30
33460;DHT22;19795;53.160;6.612;2023-09-12T10:01:59;22.50;96.50
33460;DHT22;19795;53.160;6.612;2023-09-12T10:04:27;22.70;83.70
33460;DHT22;19795;53.160;6.612;2023-09-12T10:06:56;22.80;82.30
33460;DHT22;19795;53.160;6.612;2023-09-12T10:09:23;23.20;85.30
33460;DHT22;19795;53.160;6.612;2023-09-12T10:11:51;23.40;29.90
33460;DHT22;19795;53.160;6.612;2023-09-12T10:14:19;23.60;5.00
33460;DHT22;19795;53.160;6.612;2023-09-12T10:16:47;24.00;1.00
33460;DHT22;19795;53.160;6.612;2023-09-12T10:19:51;24.20;1.00
33460;DHT22;19795;53.160;6.612;2023-09-12T10:22:21;24.80;1.00
33460;DHT22;19795;53.160;6.612;2023-09-12T10:24:49;25.00;1.00
33460;DHT22;19795;53.160;6.612;2023-09-12T10:27:18;24.90;1.00
33460;DHT22;19795;53.160;6.612;2023-09-12T10:29:44;24.60;99.90
33460;DHT22;19795;53.160;6.612;2023-09-12T10:32:14;24.20;1.00
33460;DHT22;19795;53.160;6.612;2023-09-12T10:34:41;23.60;1.00
33460;DHT22;19795;53.160;6.612;2023-09-12T10:37:12;23.30;1.00
33460;DHT22;19795;53.160;6.612;2023-09-12T10:39:40;23.20;25.50
33460;DHT22;19795;53.160;6.612;2023-09-12T10:42:07;23.30;29.80
33460;DHT22;19795;53.160;6.612;2023-09-12T10:44:33;23.30;15.90
33460;DHT22;19795;53.160;6.612;2023-09-12T10:47:00;23.50;21.30
33460;DHT22;19795;53.160;6.612;2023-09-12T10:49:26;24.00;1.00
33460;DHT22;19795;53.160;6.612;2023-09-12T10:51:55;24.40;1.00
33460;DHT22;19795;53.160;6.612;2023-09-12T10:54:36;24.40;1.00
33460;DHT22;19795;53.160;6.612;2023-09-12T10:57:10;24.80;1.00
33460;DHT22;19795;53.160;6.612;2023-09-12T11:02:32;24.80;99.90
33460;DHT22;19795;53.160;6.612;2023-09-12T11:08:00;25.10;99.90
33460;DHT22;19795;53.160;6.612;2023-09-12T11:10:27;25.90;99.90
33460;DHT22;19795;53.160;6.612;2023-09-12T11:12:56;26.20;99.90
33460;DHT22;19795;53.160;6.612;2023-09-12T11:15:26;26.40;99.90
33460;DHT22;19795;53.160;6.612;2023-09-12T11:18:05;26.60;99.90
33460;DHT22;19795;53.160;6.612;2023-09-12T11:21:03;26.50;99.90
33460;DHT22;19795;53.160;6.612;2023-09-12T11:23:29;26.00;1.00
33460;DHT22;19795;53.160;6.612;2023-09-12T11:26:07;25.60;99.90
33460;DHT22;19795;53.160;6.612;2023-09-12T11:28:32;25.40;1.00
33460;DHT22;19795;53.160;6.612;2023-09-12T11:30:58;25.30;99.90
33460;DHT22;19795;53.160;6.612;2023-09-12T11:33:25;25.10;99.90
33460;DHT22;19795;53.160;6.612;2023-09-12T11:35:55;25.10;1.00
33460;DHT22;19795;53.160;6.612;2023-09-12T11:38:28;25.70;1.00
33460;DHT22;19795;53.160;6.612;2023-09-12T11:40:55;26.40;1.00
33460;DHT22;19795;53.160;6.612;2023-09-12T11:43:23;26.60;1.00
33460;DHT22;19795;53.160;6.612;2023-09-12T11:45:49;26.60;1.00
33460;DHT22;19795;53.160;6.612;2023-09-12T11:48:15;26.60;99.90
33460;DHT22;19795;53.160;6.612;2023-09-12T11:50:41;26.70;1.00
33460;DHT22;19795;53.160;6.612;2023-09-12T11:53:12;26.80;99.90
33460;DHT22;19795;53.160;6.612;2023-09-12T11:55:44;26.50;1.00
33460;DHT22;19795;53.160;6.612;2023-09-12T11:58:14;26.50;99.90
33460;DHT22;19795;53.160;6.612;2023-09-12T12:00:49;26.40;1.00
33460;DHT22;19795;53.160;6.612;2023-09-12T12:03:16;26.20;99.90
33460;DHT22;19795;53.160;6.612;2023-09-12T12:05:42;26.30;1.00
33460;DHT22;19795;53.160;6.612;2023-09-12T12:08:08;26.50;99.90
33460;DHT22;19795;53.160;6.612;2023-09-12T12:10:35;27.00;1.00
33460;DHT22;19795;53.160;6.612;2023-09-12T12:13:04;27.60;16.20
33460;DHT22;19795;53.160;6.612;2023-09-12T12:15:30;28.00;99.90
33460;DHT22;19795;53.160;6.612;2023-09-12T12:17:56;27.90;1.00
33460;DHT22;19795;53.160;6.612;2023-09-12T12:20:22;27.40;99.90
33460;DHT22;19795;53.160;6.612;2023-09-12T12:22:48;27.40;99.90
33460;DHT22;19795;53.160;6.612;2023-09-12T12:25:17;27.20;37.20
33460;DHT22;19795;53.160;6.612;2023-09-12T12:27:42;27.40;84.20
33460;DHT22;19795;53.160;6.612;2023-09-12T12:30:11;27.80;1.00
33460;DHT22;19795;53.160;6.612;2023-09-12T12:32:44;27.10;99.90
33460;DHT22;19795;53.160;6.612;2023-09-12T12:35:19;26.80;60.70
33460;DHT22;19795;53.160;6.612;2023-09-12T12:37:45;27.20;1.00
33460;DHT22;19795;53.160;6.612;2023-09-12T12:40:14;27.70;1.00
33460;DHT22;19795;53.160;6.612;2023-09-12T12:42:41;28.30;99.90
33460;DHT22;19795;53.160;6.612;2023-09-12T12:45:23;28.20;1.00
33460;DHT22;19795;53.160;6.612;2023-09-12T12:47:58;27.60;99.90
33460;DHT22;19795;53.160;6.612;2023-09-12T12:50:25;26.80;1.00
33460;DHT22;19795;53.160;6.612;2023-09-12T12:52:50;27.00;1.00
33460;DHT22;19795;53.160;6.612;2023-09-12T12:55:16;27.40;99.90
33460;DHT22;19795;53.160;6.612;2023-09-12T12:57:43;27.90;1.00
33460;DHT22;19795;53.160;6.612;2023-09-12T13:02:37;27.80;38.00
33460;DHT22;19795;53.160;6.612;2023-09-12T13:05:04;27.30;99.90
33460;DHT22;19795;53.160;6.612;2023-09-12T13:07:34;26.90;99.90
33460;DHT22;19795;53.160;6.612;2023-09-12T13:10:01;27.50;99.90
33460;DHT22;19795;53.160;6.612;2023-09-12T13:12:27;28.50;99.90
33460;DHT22;19795;53.160;6.612;2023-09-12T13:14:53;29.00;1.00
33460;DHT22;19795;53.160;6.612;2023-09-12T13:17:19;28.60;99.90
33460;DHT22;19795;53.160;6.612;2023-09-12T13:19:44;28.70;1.00
33460;DHT22;19795;53.160;6.612;2023-09-12T13:22:11;29.10;99.90
33460;DHT22;19795;53.160;6.612;2023-09-12T13:24:36;28.80;99.90
33460;DHT22;19795;53.160;6.612;2023-09-12T13:27:02;28.40;99.90
33460;DHT22;19795;53.160;6.612;2023-09-12T13:29:28;27.20;99.90
33460;DHT22;19795;53.160;6.612;2023-09-12T13:31:53;25.50;99.90
33460;DHT22;19795;53.160;6.612;2023-09-12T13:34:24;24.30;1.00
33460;DHT22;19795;53.160;6.612;2023-09-12T13:37:31;23.70;1.00
33460;DHT22;19795;53.160;6.612;2023-09-12T13:40:31;23.40;1.00
33460;DHT22;19795;53.160;6.612;2023-09-12T13:42:58;23.40;1.00
33460;DHT22;19795;53.160;6.612;2023-09-12T13:45:26;24.00;1.00
33460;DHT22;19795;53.160;6.612;2023-09-12T13:47:52;24.30;99.90
33460;DHT22;19795;53.160;6.612;2023-09-12T13:50:18;24.20;99.90
33460;DHT22;19795;53.160;6.612;2023-09-12T13:52:44;24.40;99.90
33460;DHT22;19795;53.160;6.612;2023-09-12T13:55:10;24.90;1.00
33460;DHT22;19795;53.160;6.612;2023-09-12T13:57:39;25.50;43.70
33460;DHT22;19795;53.160;6.612;2023-09-12T14:00:05;25.40;99.90
33460;DHT22;19795;53.160;6.612;2023-09-12T14:02:31;24.30;99.90
33460;DHT22;19795;53.160;6.612;2023-09-12T14:04:57;24.00;1.00
33460;DHT22;19795;53.160;6.612;2023-09-12T14:07:23;23.80;1.00
33460;DHT22;19795;53.160;6.612;2023-09-12T14:09:49;23.50;1.00
33460;DHT22;19795;53.160;6.612;2023-09-12T14:12:16;23.50;1.00
33460;DHT22;19795;53.160;6.612;2023-09-12T14:14:42;23.30;1.00
33460;DHT22;19795;53.160;6.612;2023-09-12T14:17:09;23.20;1.00
33460;DHT22;19795;53.160;6.612;2023-09-12T14:19:34;23.60;1.00
33460;DHT22;19795;53.160;6.612;2023-09-12T14:22:00;23.70;1.00
33460;DHT22;19795;53.160;6.612;2023-09-12T14:24:26;23.40;1.00
33460;DHT22;19795;53.160;6.612;2023-09-12T14:26:51;23.40;1.00
33460;DHT22;19795;53.160;6.612;2023-09-12T14:29:17;23.30;1.00
33460;DHT22;19795;53.160;6.612;2023-09-12T14:31:43;23.30;1.00
33460;DHT22;19795;53.160;6.612;2023-09-12T14:34:19;23.20;1.00
33460;DHT22;19795;53.160;6.612;2023-09-12T14:36:44;23.20;1.00
33460;DHT22;19795;53.160;6.612;2023-09-12T14:39:13;23.20;1.00
33460;DHT22;19795;53.160;6.612;2023-09-12T14:41:40;23.30;1.00
33460;DHT22;19795;53.160;6.612;2023-09-12T14:44:09;23.30;1.00
33460;DHT22;19795;53.160;6.612;2023-09-12T14:46:34;23.20;1.00
33460;DHT22;19795;53.160;6.612;2023-09-12T14:49:00;23.20;1.00
33460;DHT22;19795;53.160;6.612;2023-09-12T14:51:26;23.30;1.00
33460;DHT22;19795;53.160;6.612;2023-09-12T14:53:52;23.20;1.00
33460;DHT22;19795;53.160;6.612;2023-09-12T14:56:17;23.20;1.00
33460;DHT22;19795;53.160;6.612;2023-09-12T14:58:43;23.10;1.00
33460;DHT22;19795;53.160;6.612;2023-09-12T15:01:08;22.90;1.00
33460;DHT22;19795;53.160;6.612;2023-09-12T15:03:34;22.70;1.00
33460;DHT22;19795;53.160;6.612;2023-09-12T15:06:04;22.70;1.00
33460;DHT22;19795;53.160;6.612;2023-09-12T15:08:30;22.50;10.60
33460;DHT22;19795;53.160;6.612;2023-09-12T15:10:56;22.70;12.50
33460;DHT22;19795;53.160;6.612;2023-09-12T15:13:22;23.10;1.00
33460;DHT22;19795;53.160;6.612;2023-09-12T15:15:47;23.50;1.00
33460;DHT22;19795;53.160;6.612;2023-09-12T15:18:13;23.70;1.00
33460;DHT22;19795;53.160;6.612;2023-09-12T15:20:39;23.60;1.00
33460;DHT22;19795;53.160;6.612;2023-09-12T15:23:05;23.50;1.00
33460;DHT22;19795;53.160;6.612;2023-09-12T15:25:31;23.40;1.00
33460;DHT22;19795;53.160;6.612;2023-09-12T15:27:58;23.10;1.00
33460;DHT22;19795;53.160;6.612;2023-09-12T15:30:24;22.80;1.00
33460;DHT22;19795;53.160;6.612;2023-09-12T15:32:50;22.60;1.00
33460;DHT22;19795;53.160;6.612;2023-09-12T15:35:15;22.60;1.00
33460;DHT22;19795;53.160;6.612;2023-09-12T15:37:41;22.60;5.80
33460;DHT22;19795;53.160;6.612;2023-09-12T15:40:07;22.50;16.70
33460;DHT22;19795;53.160;6.612;2023-09-12T15:42:33;22.50;1.00
33460;DHT22;19795;53.160;6.612;2023-09-12T15:44:59;22.40;1.00
33460;DHT22;19795;53.160;6.612;2023-09-12T15:47:24;22.30;1.00
33460;DHT22;19795;53.160;6.612;2023-09-12T15:49:50;22.20;1.00
33460;DHT22;19795;53.160;6.612;2023-09-12T15:52:16;22.20;1.00
33460;DHT22;19795;53.160;6.612;2023-09-12T15:54:41;22.30;1.00
33460;DHT22;19795;53.160;6.612;2023-09-12T15:57:07;22.50;1.00
33460;DHT22;19795;53.160;6.612;2023-09-12T15:59:33;22.30;1.00
33460;DHT22;19795;53.160;6.612;2023-09-12T16:01:59;22.40;1.00
33460;DHT22;19795;53.160;6.612;2023-09-12T16:04:33;22.10;1.00
33460;DHT22;19795;53.160;6.612;2023-09-12T16:06:59;22.00;1.00
33460;DHT22;19795;53.160;6.612;2023-09-12T16:09:25;21.80;1.00
33460;DHT22;19795;53.160;6.612;2023-09-12T16:11:51;21.60;1.00
33460;DHT22;19795;53.160;6.612;2023-09-12T16:14:16;21.50;1.00
33460;DHT22;19795;53.160;6.612;2023-09-12T16:16:42;21.50;7.50
33460;DHT22;19795;53.160;6.612;2023-09-12T16:19:08;21.50;10.60
33460;DHT22;19795;53.160;6.612;2023-09-12T16:21:35;21.50;1.00
33460;DHT22;19795;53.160;6.612;2023-09-12T16:24:00;21.60;1.00
33460;DHT22;19795;53.160;6.612;2023-09-12T16:26:26;21.70;1.00
33460;DHT22;19795;53.160;6.612;2023-09-12T16:28:52;21.80;1.00
33460;DHT22;19795;53.160;6.612;2023-09-12T16:31:17;21.90;1.00
33460;DHT22;19795;53.160;6.612;2023-09-12T16:33:46;21.90;1.00
33460;DHT22;19795;53.160;6.612;2023-09-12T16:36:11;21.80;1.00
33460;DHT22;19795;53.160;6.612;2023-09-12T16:38:37;21.80;1.00
33460;DHT22;19795;53.160;6.612;2023-09-12T16:41:03;21.70;1.00
33460;DHT22;19795;53.160;6.612;2023-09-12T16:43:29;21.40;5.40
33460;DHT22;19795;53.160;6.612;2023-09-12T16:45:54;21.20;24.20
33460;DHT22;19795;53.160;6.612;2023-09-12T16:48:21;21.10;45.10
33460;DHT22;19795;53.160;6.612;2023-09-12T16:50:48;21.00;50.10
33460;DHT22;19795;53.160;6.612;2023-09-12T16:53:13;21.00;48.70
33460;DHT22;19795;53.160;6.612;2023-09-12T16:55:41;21.00;52.60
33460;DHT22;19795;53.160;6.612;2023-09-12T16:58:08;20.90;56.10
33460;DHT22;19795;53.160;6.612;2023-09-12T17:00:34;20.90;52.30
33460;DHT22;19795;53.160;6.612;2023-09-12T17:03:02;20.80;62.60
33460;DHT22;19795;53.160;6.612;2023-09-12T17:05:28;20.80;64.10
33460;DHT22;19795;53.160;6.612;2023-09-12T17:07:54;20.80;60.10
33460;DHT22;19795;53.160;6.612;2023-09-12T17:10:19;20.70;64.40
33460;DHT22;19795;53.160;6.612;2023-09-12T17:12:46;20.60;73.40
33460;DHT22;19795;53.160;6.612;2023-09-12T17:15:13;20.60;77.30
33460;DHT22;19795;53.160;6.612;2023-09-12T17:17:40;20.50;81.80
33460;DHT22;19795;53.160;6.612;2023-09-12T17:20:06;20.50;79.50
33460;DHT22;19795;53.160;6.612;2023-09-12T17:22:32;20.40;78.00
33460;DHT22;19795;53.160;6.612;2023-09-12T17:24:57;20.30;79.50
33460;DHT22;19795;53.160;6.612;2023-09-12T17:27:24;20.20;82.10
33460;DHT22;19795;53.160;6.612;2023-09-12T17:29:50;20.20;83.90
33460;DHT22;19795;53.160;6.612;2023-09-12T17:32:15;20.10;77.90
33460;DHT22;19795;53.160;6.612;2023-09-12T17:34:46;20.00;81.20
33460;DHT22;19795;53.160;6.612;2023-09-12T17:37:17;19.90;84.80
33460;DHT22;19795;53.160;6.612;2023-09-12T17:39:43;19.80;90.90
33460;DHT22;19795;53.160;6.612;2023-09-12T17:42:09;19.80;91.70
33460;DHT22;19795;53.160;6.612;2023-09-12T17:44:34;19.80;95.40
33460;DHT22;19795;53.160;6.612;2023-09-12T17:47:01;19.70;95.70
33460;DHT22;19795;53.160;6.612;2023-09-12T17:49:27;19.70;95.90
33460;DHT22;19795;53.160;6.612;2023-09-12T17:51:53;19.70;98.70
33460;DHT22;19795;53.160;6.612;2023-09-12T17:54:19;19.60;97.30
33460;DHT22;19795;53.160;6.612;2023-09-12T17:56:45;19.60;97.60
33460;DHT22;19795;53.160;6.612;2023-09-12T17:59:11;19.60;99.90
33460;DHT22;19795;53.160;6.612;2023-09-12T18:01:36;19.60;99.90
33460;DHT22;19795;53.160;6.612;2023-09-12T18:04:02;19.60;99.90
33460;DHT22;19795;53.160;6.612;2023-09-12T18:06:29;19.50;99.90
33460;DHT22;19795;53.160;6.612;2023-09-12T18:08:57;19.50;99.90
33460;DHT22;19795;53.160;6.612;2023-09-12T18:11:23;19.40;99.90
33460;DHT22;19795;53.160;6.612;2023-09-12T18:13:48;19.50;99.90
33460;DHT22;19795;53.160;6.612;2023-09-12T18:16:15;19.40;99.90
33460;DHT22;19795;53.160;6.612;2023-09-12T18:18:42;19.40;99.90
33460;DHT22;19795;53.160;6.612;2023-09-12T18:21:11;19.30;99.90
33460;DHT22;19795;53.160;6.612;2023-09-12T18:23:38;19.30;99.90
33460;DHT22;19795;53.160;6.612;2023-09-12T18:26:14;19.30;99.90
33460;DHT22;19795;53.160;6.612;2023-09-12T18:28:48;19.30;99.90
33460;DHT22;19795;53.160;6.612;2023-09-12T18:31:17;19.20;99.90
33460;DHT22;19795;53.160;6.612;2023-09-12T18:33:44;19.50;99.90
33460;DHT22;19795;53.160;6.612;2023-09-12T18:36:11;19.20;99.90
33460;DHT22;19795;53.160;6.612;2023-09-12T18:38:38;19.20;99.90
33460;DHT22;19795;53.160;6.612;2023-09-12T18:41:05;19.20;99.90
33460;DHT22;19795;53.160;6.612;2023-09-12T18:43:30;19.10;99.90
33460;DHT22;19795;53.160;6.612;2023-09-12T18:45:56;19.10;99.90
33460;DHT22;19795;53.160;6.612;2023-09-12T18:48:23;19.20;99.90
33460;DHT22;19795;53.160;6.612;2023-09-12T18:50:49;19.20;99.90
33460;DHT22;19795;53.160;6.612;2023-09-12T18:53:17;19.20;99.90
33460;DHT22;19795;53.160;6.612;2023-09-12T18:55:44;19.10;99.90
33460;DHT22;19795;53.160;6.612;2023-09-12T18:58:10;19.10;99.90
33460;DHT22;19795;53.160;6.612;2023-09-12T19:00:40;19.10;99.90
33460;DHT22;19795;53.160;6.612;2023-09-12T19:03:12;19.00;99.90
33460;DHT22;19795;53.160;6.612;2023-09-12T19:05:41;19.00;99.90
33460;DHT22;19795;53.160;6.612;2023-09-12T19:08:07;18.90;99.90
33460;DHT22;19795;53.160;6.612;2023-09-12T19:10:33;18.90;99.90
33460;DHT22;19795;53.160;6.612;2023-09-12T19:12:59;18.90;99.90
33460;DHT22;19795;53.160;6.612;2023-09-12T19:15:25;18.80;99.90
33460;DHT22;19795;53.160;6.612;2023-09-12T19:17:51;18.80;99.90
33460;DHT22;19795;53.160;6.612;2023-09-12T19:20:17;18.70;99.90
33460;DHT22;19795;53.160;6.612;2023-09-12T19:22:43;18.60;99.90
33460;DHT22;19795;53.160;6.612;2023-09-12T19:25:09;18.50;99.90
33460;DHT22;19795;53.160;6.612;2023-09-12T19:27:39;18.50;99.90
33460;DHT22;19795;53.160;6.612;2023-09-12T19:30:06;18.50;99.90
33460;DHT22;19795;53.160;6.612;2023-09-12T19:32:32;18.40;99.90
33460;DHT22;19795;53.160;6.612;2023-09-12T19:34:59;18.40;99.90
33460;DHT22;19795;53.160;6.612;2023-09-12T19:37:25;18.50;99.90
33460;DHT22;19795;53.160;6.612;2023-09-12T19:39:51;18.50;99.90
33460;DHT22;19795;53.160;6.612;2023-09-12T19:42:17;18.50;99.90
33460;DHT22;19795;53.160;6.612;2023-09-12T19:44:44;18.50;99.90
33460;DHT22;19795;53.160;6.612;2023-09-12T19:47:18;18.50;99.90
33460;DHT22;19795;53.160;6.612;2023-09-12T19:49:44;18.40;99.90
33460;DHT22;19795;53.160;6.612;2023-09-12T19:52:10;18.40;99.90
33460;DHT22;19795;53.160;6.612;2023-09-12T19:54:36;18.30;99.90
33460;DHT22;19795;53.160;6.612;2023-09-12T19:57:01;18.20;99.90
33460;DHT22;19795;53.160;6.612;2023-09-12T19:59:28;18.20;99.90
33460;DHT22;19795;53.160;6.612;2023-09-12T20:01:54;18.10;99.90
33460;DHT22;19795;53.160;6.612;2023-09-12T20:04:20;18.20;99.90
33460;DHT22;19795;53.160;6.612;2023-09-12T20:06:54;18.10;99.90
33460;DHT22;19795;53.160;6.612;2023-09-12T20:09:20;18.10;99.90
33460;DHT22;19795;53.160;6.612;2023-09-12T20:11:46;18.10;99.90
33460;DHT22;19795;53.160;6.612;2023-09-12T20:14:13;18.20;99.90
33460;DHT22;19795;53.160;6.612;2023-09-12T20:16:39;18.20;99.90
33460;DHT22;19795;53.160;6.612;2023-09-12T20:19:06;18.30;99.90
33460;DHT22;19795;53.160;6.612;2023-09-12T20:21:33;18.30;99.90
33460;DHT22;19795;53.160;6.612;2023-09-12T20:24:00;18.30;99.90
33460;DHT22;19795;53.160;6.612;2023-09-12T20:26:26;18.30;99.90
33460;DHT22;19795;53.160;6.612;2023-09-12T20:28:52;18.30;99.90
33460;DHT22;19795;53.160;6.612;2023-09-12T20:31:18;18.40;99.90
33460;DHT22;19795;53.160;6.612;2023-09-12T20:33:44;18.40;99.90
33460;DHT22;19795;53.160;6.612;2023-09-12T20:36:10;18.40;99.90
33460;DHT22;19795;53.160;6.612;2023-09-12T20:38:46;18.40;99.90
33460;DHT22;19795;53.160;6.612;2023-09-12T20:41:11;18.40;99.90
33460;DHT22;19795;53.160;6.612;2023-09-12T20:43:37;18.40;99.90
33460;DHT22;19795;53.160;6.612;2023-09-12T20:46:03;18.40;99.90
33460;DHT22;19795;53.160;6.612;2023-09-12T20:48:29;18.30;99.90
33460;DHT22;19795;53.160;6.612;2023-09-12T20:50:57;18.10;99.90
33460;DHT22;19795;53.160;6.612;2023-09-12T20:53:22;18.20;99.90
33460;DHT22;19795;53.160;6.612;2023-09-12T20:55:48;18.30;99.90
33460;DHT22;19795;53.160;6.612;2023-09-12T20:58:14;18.20;99.90
33460;DHT22;19795;53.160;6.612;2023-09-12T21:00:40;18.30;99.90
33460;DHT22;19795;53.160;6.612;2023-09-12T21:03:06;18.00;99.90
33460;DHT22;19795;53.160;6.612;2023-09-12T21:05:32;18.10;99.90